Time;durP1;ratioP1;P1;durP2;ratioP2;P2;SDS_P1;SDS_P2;PMS_P1;PMS_P2;Temp;Humidity;BMP_temperature;BMP_pressure;BME280_temperature;BME280_humidity;BME280_pressure;Samples;Min_cycle;Max_cycle;Signal;HPM_P1;HPM_P2
2022/01/09 00:01:21;;;;;;;20.58;8.15;;;;;;;4.61;100.00;99003.03;5254419;28;20037;-84
2022/01/09 00:03:52;;;;;;;14.82;8.52;;;;;;;4.11;100.00;98955.53;5254765;28;20032;-84
2022/01/09 00:06:22;;;;;;;19.08;10.40;;;;;;;4.69;100.00;99061.34;5254924;28;20397;-84
2022/01/09 00:08:52;;;;;;;31.88;9.63;;;;;;;4.22;100.00;98993.78;5254380;28;20025;-83
2022/01/09 00:11:26;;;;;;;13.85;7.63;;;;;;;4.65;100.00;99075.47;5253717;28;20027;-84
2022/01/09 00:13:57;;;;;;;18.60;8.40;;;;;;;4.50;100.00;99067.41;5236234;28;20021;-83
2022/01/09 00:16:27;;;;;;;15.88;7.97;;;;;;;4.58;100.00;99099.00;5236684;28;20021;-83
2022/01/09 00:18:58;;;;;;;12.93;8.00;;;;;;;4.56;100.00;99107.28;5255683;28;20066;-84
2022/01/09 00:21:28;;;;;;;32.83;10.20;;;;;;;4.25;100.00;99079.56;5236906;28;20029;-83
2022/01/09 00:23:58;;;;;;;33.97;8.98;;;;;;;4.19;100.00;99069.91;5236545;28;20035;-83
2022/01/09 00:26:29;;;;;;;11.63;8.82;;;;;;;4.33;100.00;99107.69;5240100;28;20029;-83
2022/01/09 00:29:00;;;;;;;13.80;8.65;;;;;;;4.36;100.00;99113.28;5241786;28;20017;-84
2022/01/09 00:31:30;;;;;;;17.40;8.65;;;;;;;4.44;100.00;99140.59;5240669;28;20043;-83
2022/01/09 00:34:00;;;;;;;21.42;7.00;;;;;;;4.37;100.00;99144.28;5239656;28;20017;-85
2022/01/09 00:36:31;;;;;;;15.68;7.25;;;;;;;4.31;100.00;99148.00;5257762;28;20050;-84
2022/01/09 00:39:03;;;;;;;13.50;7.72;;;;;;;4.32;100.00;99135.47;5240203;28;20032;-84
2022/01/09 00:41:33;;;;;;;8.35;7.35;;;;;;;4.35;100.00;99166.97;5258779;28;20032;-85
2022/01/09 00:44:04;;;;;;;16.70;8.15;;;;;;;4.34;100.00;99168.03;5240373;28;20025;-83
2022/01/09 00:46:35;;;;;;;11.38;7.22;;;;;;;4.38;100.00;99182.50;5258876;28;20021;-83
2022/01/09 00:49:05;;;;;;;17.77;7.35;;;;;;;4.16;100.00;99163.09;5258834;28;20145;-83
2022/01/09 00:51:35;;;;;;;20.52;9.38;;;;;;;4.26;100.00;99184.56;5239515;28;20020;-83
2022/01/09 00:54:06;;;;;;;20.90;10.18;;;;;;;4.25;100.00;99177.63;5239421;28;20031;-84
2022/01/09 00:56:36;;;;;;;29.38;9.00;;;;;;;4.26;100.00;99195.25;5257246;28;20118;-83
2022/01/09 00:59:07;;;;;;;25.48;8.25;;;;;;;4.14;100.00;99178.59;5239016;28;20024;-82
2022/01/09 01:01:37;;;;;;;18.60;9.15;;;;;;;4.12;100.00;99186.03;5256805;28;20070;-84
2022/01/09 01:04:08;;;;;;;17.30;9.23;;;;;;;4.25;100.00;99223.84;5258725;28;20029;-85
2022/01/09 01:06:38;;;;;;;13.35;8.15;;;;;;;4.25;100.00;99212.34;5241705;28;20025;-85
2022/01/09 01:09:09;;;;;;;19.42;8.77;;;;;;;3.92;100.00;99166.13;5243667;28;20020;-85
2022/01/09 01:11:39;;;;;;;19.10;9.07;;;;;;;3.88;100.00;99165.03;5262471;28;20028;-88
2022/01/09 01:14:10;;;;;;;20.27;9.90;;;;;;;4.26;100.00;99233.47;5239963;28;20035;-85
2022/01/09 01:16:41;;;;;;;17.10;7.88;;;;;;;4.12;100.00;99218.91;5239272;28;20099;-85
2022/01/09 01:19:11;;;;;;;41.72;9.65;;;;;;;4.30;100.00;99239.13;5239346;28;20017;-84
2022/01/09 01:21:42;;;;;;;20.95;11.10;;;;;;;4.35;100.00;99245.28;5239589;28;20028;-84
2022/01/09 01:24:12;;;;;;;28.58;11.38;;;;;;;4.47;100.00;99263.84;5241225;28;20029;-85
2022/01/09 01:26:43;;;;;;;20.25;9.25;;;;;;;4.49;100.00;99277.75;5242077;28;20021;-84
2022/01/09 01:29:14;;;;;;;28.58;9.55;;;;;;;4.50;100.00;99259.84;5243204;28;20163;-84
2022/01/09 01:31:44;;;;;;;13.13;7.47;;;;;;;4.67;100.00;99271.19;5263425;28;20082;-86
2022/01/09 01:34:15;;;;;;;24.08;8.88;;;;;;;4.57;100.00;99266.59;5248989;28;20021;-85
2022/01/09 01:36:45;;;;;;;13.90;8.32;;;;;;;4.43;100.00;99256.56;5250075;28;20035;-84
2022/01/09 01:39:16;;;;;;;27.27;11.60;;;;;;;4.66;100.00;99291.78;5266236;28;20020;-83
2022/01/09 01:41:47;;;;;;;25.55;10.35;;;;;;;4.72;100.00;99308.69;5264816;28;20410;-84
2022/01/09 01:44:18;;;;;;;15.63;7.45;;;;;;;4.74;100.00;99325.28;5245905;28;20046;-83
2022/01/09 01:46:48;;;;;;;27.60;9.65;;;;;;;4.45;100.00;99270.50;5264074;28;20020;-83
2022/01/09 01:49:19;;;;;;;23.38;8.95;;;;;;;4.23;100.00;99255.34;5263650;28;20142;-85
2022/01/09 01:51:50;;;;;;;26.33;9.95;;;;;;;3.24;100.00;99094.75;5247985;28;20021;-86
2022/01/09 01:54:22;;;;;;;11.73;7.13;;;;;;;4.37;100.00;99285.13;5247760;28;20035;-84
2022/01/09 01:56:52;;;;;;;21.67;9.30;;;;;;;3.65;100.00;99186.69;5266567;28;20050;-85
2022/01/09 01:59:22;;;;;;;7.65;6.25;;;;;;;4.47;100.00;99317.28;5266227;28;20032;-84
2022/01/09 02:01:53;;;;;;;16.50;8.38;;;;;;;4.64;100.00;99362.63;5248205;28;20049;-84
2022/01/09 02:04:23;;;;;;;23.58;10.18;;;;;;;4.43;100.00;99332.22;5248036;28;20120;-84
2022/01/09 02:06:56;;;;;;;27.77;8.05;;;;;;;4.51;100.00;99334.44;5247915;28;20067;-84
2022/01/09 02:09:28;;;;;;;20.40;8.10;;;;;;;4.55;100.00;99359.63;5248419;28;20025;-84
2022/01/09 02:11:58;;;;;;;16.77;8.43;;;;;;;4.47;100.00;99365.41;5266953;28;20023;-84
2022/01/09 02:14:28;;;;;;;24.42;8.82;;;;;;;4.54;100.00;99382.06;5266006;28;20016;-85
2022/01/09 02:16:59;;;;;;;20.77;7.57;;;;;;;4.48;100.00;99364.34;5266321;28;20027;-85
2022/01/09 02:19:29;;;;;;;22.20;8.25;;;;;;;4.38;100.00;99359.69;5248503;28;20042;-83
2022/01/09 02:22:00;;;;;;;16.48;7.97;;;;;;;4.03;100.00;99303.25;5248398;28;20040;-86
2022/01/09 02:24:31;;;;;;;10.85;7.22;;;;;;;4.41;100.00;99379.78;5247043;28;20024;-83
2022/01/09 02:27:04;;;;;;;20.23;6.95;;;;;;;3.96;100.00;99321.31;5249478;28;20035;-84
2022/01/09 02:29:35;;;;;;;18.88;6.88;;;;;;;4.35;100.00;99380.78;5248554;28;20031;-85
2022/01/09 02:32:06;;;;;;;18.05;7.10;;;;;;;3.79;100.00;99299.22;5248208;28;20087;-86
2022/01/09 02:34:36;;;;;;;19.73;6.72;;;;;;;4.06;100.00;99356.16;5248277;28;20050;-86
2022/01/09 02:37:07;;;;;;;17.10;7.80;;;;;;;4.46;100.00;99403.88;5248432;28;20020;-85
2022/01/09 02:39:37;;;;;;;22.98;7.25;;;;;;;4.51;100.00;99411.97;5265444;28;20024;-85
2022/01/09 02:42:22;;;;;;;15.02;7.65;;;;;;;3.99;100.00;99374.25;5266190;28;20401;-85
2022/01/09 02:44:55;;;;;;;10.82;6.38;;;;;;;3.90;100.00;99349.03;5248049;28;20024;-85
2022/01/09 02:47:29;;;;;;;11.65;6.10;;;;;;;4.51;100.00;99430.69;5247547;28;20012;-85
2022/01/09 02:50:29;;;;;;;10.98;6.47;;;;;;;4.75;100.00;99485.47;5263917;28;20017;-85
2022/01/09 02:53:11;;;;;;;15.70;5.35;;;;;;;4.03;100.00;99396.75;5265593;28;20207;-84
2022/01/09 02:55:43;;;;;;;6.70;4.82;;;;;;;4.20;100.00;99408.16;5246812;28;20192;-85
2022/01/09 02:58:14;;;;;;;14.30;6.93;;;;;;;4.06;100.00;99382.84;5247987;28;20033;-85
2022/01/09 03:00:52;;;;;;;10.30;5.88;;;;;;;4.54;100.00;99480.97;5246785;28;20119;-86
2022/01/09 03:03:22;;;;;;;8.65;6.22;;;;;;;4.47;100.00;99491.03;5247669;28;20062;-86
2022/01/09 03:05:53;;;;;;;14.55;4.18;;;;;;;3.84;100.00;99417.56;5265446;28;20051;-84
2022/01/09 03:08:23;;;;;;;20.13;5.25;;;;;;;3.50;100.00;99360.78;5264136;28;20019;-84
2022/01/09 03:10:54;;;;;;;6.57;4.90;;;;;;;3.72;100.00;99384.88;5247014;28;20020;-85
2022/01/09 03:13:25;;;;;;;9.98;4.88;;;;;;;4.57;100.00;99522.44;5263806;28;20024;-85
2022/01/09 03:15:55;;;;;;;15.18;6.40;;;;;;;4.48;100.00;99518.56;5246916;28;20024;-85
2022/01/09 03:18:26;;;;;;;14.95;7.18;;;;;;;3.96;100.00;99461.00;5246164;28;20080;-83
2022/01/09 03:20:56;;;;;;;7.57;4.80;;;;;;;4.04;100.00;99452.56;5246145;28;20029;-84
2022/01/09 03:23:26;;;;;;;18.25;7.05;;;;;;;3.67;100.00;99411.47;5264191;28;20017;-85
2022/01/09 03:25:57;;;;;;;18.65;7.53;;;;;;;4.40;100.00;99527.81;5264701;28;20046;-84
2022/01/09 03:28:27;;;;;;;14.40;6.25;;;;;;;3.46;100.00;99404.25;5245892;28;20021;-84
2022/01/09 03:30:57;;;;;;;7.50;4.53;;;;;;;4.30;100.00;99525.03;5263148;28;20020;-83
2022/01/09 03:33:28;;;;;;;7.70;5.82;;;;;;;3.94;100.00;99471.13;5264067;28;20025;-85
2022/01/09 03:35:58;;;;;;;5.50;4.55;;;;;;;4.45;100.00;99549.28;5245917;28;20104;-84
2022/01/09 03:38:29;;;;;;;17.45;7.90;;;;;;;4.39;100.00;99556.41;5264177;28;20027;-85
2022/01/09 03:40:59;;;;;;;20.90;6.65;;;;;;;4.30;100.00;99551.75;5263937;28;20040;-84
2022/01/09 03:43:30;;;;;;;15.85;6.82;;;;;;;4.19;100.00;99553.47;5245714;28;20092;-85
2022/01/09 03:46:00;;;;;;;10.73;5.85;;;;;;;4.27;100.00;99570.97;5245923;28;20043;-85
2022/01/09 03:48:32;;;;;;;13.07;6.15;;;;;;;4.00;100.00;99546.81;5246927;28;20051;-85
2022/01/09 03:51:03;;;;;;;9.98;5.45;;;;;;;4.15;100.00;99570.25;5245711;28;20028;-85
2022/01/09 03:53:33;;;;;;;12.40;5.20;;;;;;;4.23;100.00;99596.56;5262812;28;20012;-84
2022/01/09 03:56:04;;;;;;;8.10;5.75;;;;;;;4.28;100.00;99608.13;5244783;28;20038;-85
2022/01/09 03:58:36;;;;;;;13.35;7.30;;;;;;;3.53;100.00;99507.09;5245995;28;20501;-84
2022/01/09 04:01:08;;;;;;;7.03;5.75;;;;;;;3.78;100.00;99570.75;5247543;28;20024;-84
2022/01/09 04:03:38;;;;;;;9.52;6.25;;;;;;;3.98;100.00;99591.66;5249216;28;20046;-83
2022/01/09 04:06:09;;;;;;;18.52;7.13;;;;;;;3.91;100.00;99597.13;5250022;28;20111;-83
2022/01/09 04:08:39;;;;;;;5.13;4.82;;;;;;;4.22;100.00;99645.69;5249039;28;20107;-83
2022/01/09 04:11:13;;;;;;;12.13;6.13;;;;;;;4.21;100.00;99638.72;5249626;28;20032;-83
2022/01/09 04:13:43;;;;;;;8.93;6.15;;;;;;;4.14;100.00;99660.28;5266681;28;20080;-84
2022/01/09 04:16:14;;;;;;;13.43;5.43;;;;;;;3.83;100.00;99616.22;5249316;28;20048;-84
2022/01/09 04:18:44;;;;;;;7.13;5.60;;;;;;;3.93;100.00;99624.41;5266819;28;20025;-83
2022/01/09 04:21:15;;;;;;;7.97;6.13;;;;;;;4.11;100.00;99649.25;5248220;28;20374;-83
2022/01/09 04:23:46;;;;;;;19.42;6.20;;;;;;;3.63;100.00;99571.31;5248491;28;20056;-84
2022/01/09 04:26:18;;;;;;;8.23;6.25;;;;;;;4.26;100.00;99668.22;5249208;28;20022;-84
2022/01/09 04:28:49;;;;;;;13.32;5.07;;;;;;;4.13;100.00;99671.19;5248840;28;20024;-83
2022/01/09 04:31:19;;;;;;;14.68;5.57;;;;;;;4.19;100.00;99672.91;5248332;28;20025;-83
2022/01/09 04:33:50;;;;;;;10.68;5.40;;;;;;;4.22;100.00;99689.25;5266512;28;20108;-84
2022/01/09 04:36:20;;;;;;;6.93;4.80;;;;;;;4.16;100.00;99705.44;5247886;28;20024;-83
2022/01/09 04:38:52;;;;;;;5.55;5.05;;;;;;;3.92;100.00;99657.53;5249403;28;20020;-84
2022/01/09 04:41:22;;;;;;;15.80;6.68;;;;;;;4.06;100.00;99700.72;5248273;28;20032;-83
2022/01/09 04:43:52;;;;;;;15.10;4.85;;;;;;;4.10;100.00;99722.44;5266463;28;20036;-83
2022/01/09 04:46:30;;;;;;;11.10;6.32;;;;;;;3.71;100.00;99644.88;5248959;28;20032;-83
2022/01/09 04:49:01;;;;;;;8.98;6.28;;;;;;;4.11;100.00;99727.53;5248090;28;20024;-83
2022/01/09 04:51:32;;;;;;;9.18;6.45;;;;;;;4.08;100.00;99715.47;5266023;28;20030;-83
2022/01/09 04:54:04;;;;;;;9.35;5.85;;;;;;;3.93;100.00;99693.84;5247571;28;20028;-84
2022/01/09 04:56:34;;;;;;;10.05;5.40;;;;;;;4.06;100.00;99720.25;5247984;28;20020;-84
2022/01/09 04:59:05;;;;;;;17.30;7.18;;;;;;;3.93;100.00;99703.72;5247782;28;20024;-83
2022/01/09 05:01:35;;;;;;;9.55;5.53;;;;;;;3.18;100.00;99590.00;5248312;28;20036;-84
2022/01/09 05:04:06;;;;;;;15.05;6.07;;;;;;;4.13;100.00;99752.16;5265637;28;20024;-84
2022/01/09 05:06:37;;;;;;;9.45;4.10;;;;;;;4.04;100.00;99735.69;5266304;28;20055;-85
2022/01/09 05:09:07;;;;;;;10.32;5.63;;;;;;;3.75;100.00;99690.59;5248546;28;20031;-84
2022/01/09 05:11:38;;;;;;;4.70;4.03;;;;;;;3.69;100.00;99695.03;5246355;28;20020;-82
2022/01/09 05:14:09;;;;;;;8.18;5.32;;;;;;;3.64;100.00;99693.06;5266031;28;20528;-83
2022/01/09 05:16:43;;;;;;;4.75;4.22;;;;;;;3.65;100.00;99700.03;5264856;28;20024;-84
2022/01/09 05:19:19;;;;;;;7.07;4.43;;;;;;;3.49;100.00;99675.94;5247333;28;20111;-85
2022/01/09 05:21:49;;;;;;;8.65;6.57;;;;;;;4.22;100.00;99784.66;5247973;28;20028;-86
2022/01/09 05:24:19;;;;;;;8.35;5.85;;;;;;;3.65;100.00;99720.59;5247107;28;20032;-83
2022/01/09 05:26:50;;;;;;;10.02;6.93;;;;;;;3.91;100.00;99772.59;5245537;28;20028;-84
2022/01/09 05:29:21;;;;;;;12.70;6.15;;;;;;;3.68;100.00;99774.31;5236491;28;20078;-84
2022/01/09 05:31:52;;;;;;;5.93;4.88;;;;;;;3.63;100.00;99816.13;5255639;28;20040;-86
2022/01/09 05:34:23;;;;;;;8.13;4.78;;;;;;;3.16;100.00;99781.50;5237306;28;20088;-86
2022/01/09 05:36:53;;;;;;;6.78;5.10;;;;;;;3.23;100.00;99803.53;5237322;28;20025;-85
2022/01/09 05:39:23;;;;;;;7.40;4.65;;;;;;;3.09;100.00;99794.16;5237473;28;20048;-85
2022/01/09 05:41:54;;;;;;;6.10;5.60;;;;;;;3.25;100.00;99825.44;5237645;28;20035;-85
2022/01/09 05:44:24;;;;;;;10.90;5.55;;;;;;;3.27;100.00;99820.69;5255495;28;20052;-86
2022/01/09 05:46:55;;;;;;;13.93;6.28;;;;;;;3.05;100.00;99787.66;5256190;28;20020;-83
2022/01/09 05:49:25;;;;;;;10.65;6.60;;;;;;;3.31;100.00;99826.38;5239162;28;20048;-84
2022/01/09 05:51:56;;;;;;;4.93;4.45;;;;;;;3.17;100.00;99822.34;5239016;28;20077;-86
2022/01/09 05:54:27;;;;;;;9.80;6.95;;;;;;;3.02;100.00;99812.13;5237818;28;20021;-86
2022/01/09 05:56:57;;;;;;;6.63;5.63;;;;;;;3.11;100.00;99836.59;5237701;28;20024;-87
2022/01/09 05:59:28;;;;;;;5.20;4.85;;;;;;;2.99;100.00;99817.91;5238514;28;20050;-86
2022/01/09 06:01:58;;;;;;;15.02;7.90;;;;;;;2.82;100.00;99798.34;5238236;28;20024;-86
2022/01/09 06:04:30;;;;;;;7.85;6.18;;;;;;;2.98;100.00;99813.63;5237853;28;20051;-84
2022/01/09 06:07:01;;;;;;;8.55;6.13;;;;;;;2.99;100.00;99820.59;5256906;28;20032;-86
2022/01/09 06:09:31;;;;;;;8.38;6.45;;;;;;;2.92;100.00;99811.88;5239515;28;20034;-85
2022/01/09 06:12:02;;;;;;;19.10;5.90;;;;;;;3.16;100.00;99850.06;5239142;28;20385;-86
2022/01/09 06:14:32;;;;;;;11.60;7.53;;;;;;;3.08;100.00;99842.41;5238938;28;20021;-84
2022/01/09 06:17:03;;;;;;;10.80;5.95;;;;;;;3.03;100.00;99846.56;5240086;28;20028;-85
2022/01/09 06:19:33;;;;;;;10.73;6.13;;;;;;;3.21;100.00;99872.31;5256458;28;20503;-85
2022/01/09 06:22:04;;;;;;;12.68;6.50;;;;;;;3.10;100.00;99867.00;5238160;28;20028;-84
2022/01/09 06:24:34;;;;;;;6.22;5.32;;;;;;;3.03;100.00;99843.09;5238822;28;20056;-83
2022/01/09 06:27:05;;;;;;;5.90;5.43;;;;;;;3.20;100.00;99856.53;5237587;28;20025;-84
2022/01/09 06:29:35;;;;;;;12.75;7.13;;;;;;;3.04;100.00;99848.19;5256184;28;20028;-86
2022/01/09 06:32:06;;;;;;;8.43;6.72;;;;;;;3.20;100.00;99881.34;5237995;28;20033;-86
2022/01/09 06:34:36;;;;;;;10.32;6.38;;;;;;;2.87;100.00;99836.59;5255521;28;20047;-86
2022/01/09 06:37:08;;;;;;;15.02;6.75;;;;;;;2.92;100.00;99875.88;5256516;28;20028;-86
2022/01/09 06:39:42;;;;;;;8.93;6.25;;;;;;;3.01;100.00;99883.31;5257021;28;20035;-86
2022/01/09 06:42:12;;;;;;;13.18;6.68;;;;;;;2.75;100.00;99851.75;5255295;28;20024;-84
2022/01/09 06:44:43;;;;;;;12.23;6.22;;;;;;;2.96;100.00;99891.19;5239355;28;20032;-84
2022/01/09 06:47:13;;;;;;;6.53;5.93;;;;;;;2.97;100.00;99892.81;5240262;28;20447;-84
2022/01/09 06:49:44;;;;;;;7.30;6.75;;;;;;;2.36;100.00;99818.53;5259685;28;20423;-84
2022/01/09 06:52:14;;;;;;;16.52;7.15;;;;;;;2.75;100.00;99872.28;5260133;28;20430;-85
2022/01/09 06:54:45;;;;;;;8.90;6.43;;;;;;;2.81;100.00;99895.34;5243458;28;20025;-84
2022/01/09 06:57:15;;;;;;;12.45;6.70;;;;;;;2.82;100.00;99916.47;5245841;28;20027;-86
2022/01/09 06:59:45;;;;;;;10.80;6.55;;;;;;;2.71;100.00;99918.03;5255881;28;20397;-86
2022/01/09 07:02:16;;;;;;;15.80;5.63;;;;;;;2.71;100.00;99922.56;5240343;28;20107;-86
2022/01/09 07:04:46;;;;;;;7.32;5.35;;;;;;;2.58;100.00;99915.59;5246080;28;20020;-85
2022/01/09 07:07:17;;;;;;;8.65;5.63;;;;;;;2.66;100.00;99944.56;5259909;28;20024;-86
2022/01/09 07:09:47;;;;;;;9.82;6.72;;;;;;;2.64;100.00;99935.97;5244271;28;20019;-87
2022/01/09 07:12:19;;;;;;;12.13;6.50;;;;;;;2.64;100.00;99927.97;5244643;28;20027;-86
2022/01/09 07:14:49;;;;;;;7.50;6.25;;;;;;;2.47;100.00;99911.00;5240843;28;20024;-86
2022/01/09 07:17:20;;;;;;;11.52;6.35;;;;;;;2.00;100.00;99835.44;5256506;28;20112;-85
2022/01/09 07:19:50;;;;;;;10.00;6.07;;;;;;;2.49;100.00;99908.94;5239148;28;20030;-84
2022/01/09 07:22:21;;;;;;;7.28;5.22;;;;;;;2.54;100.00;99913.59;5241529;28;20033;-84
2022/01/09 07:24:51;;;;;;;15.75;8.65;;;;;;;2.14;100.00;99879.50;5240870;28;20044;-85
2022/01/09 07:27:22;;;;;;;18.52;6.60;;;;;;;2.39;100.00;99919.31;5259655;28;20036;-84
2022/01/09 07:29:52;;;;;;;17.42;7.95;;;;;;;2.46;100.00;99951.22;5244980;28;20088;-85
2022/01/09 07:32:23;;;;;;;16.48;7.28;;;;;;;1.85;100.00;99861.63;5247648;28;20025;-86
2022/01/09 07:34:53;;;;;;;15.40;7.57;;;;;;;2.50;100.00;99947.06;5246906;28;20063;-85
2022/01/09 07:37:27;;;;;;;7.03;6.25;;;;;;;2.57;100.00;99956.59;5264409;28;20028;-84
2022/01/09 07:39:58;;;;;;;9.38;6.00;;;;;;;2.50;100.00;99942.53;5265082;28;20091;-86
2022/01/09 07:42:29;;;;;;;8.40;6.13;;;;;;;2.60;100.00;99964.13;5247439;28;20040;-86
2022/01/09 07:45:00;;;;;;;9.68;5.38;;;;;;;2.31;100.00;99938.28;5247141;28;20020;-86
2022/01/09 07:47:31;;;;;;;15.75;6.00;;;;;;;2.21;100.00;99922.84;5246760;28;20425;-86
2022/01/09 07:50:03;;;;;;;10.60;6.63;;;;;;;2.78;100.00;99983.78;5246492;28;20016;-85
2022/01/09 07:52:34;;;;;;;8.10;5.20;;;;;;;2.38;100.00;99936.34;5246655;28;20024;-86
2022/01/09 07:55:06;;;;;;;16.35;5.13;;;;;;;2.58;100.00;99976.88;5246606;28;20092;-87
2022/01/09 07:57:37;;;;;;;8.65;5.05;;;;;;;2.53;100.00;99967.94;5245483;28;20025;-86
2022/01/09 08:00:10;;;;;;;7.65;5.53;;;;;;;2.60;100.00;99985.44;5243542;28;20025;-86
2022/01/09 08:02:44;;;;;;;11.13;4.93;;;;;;;2.38;100.00;99944.34;5263431;28;20028;-86
2022/01/09 08:05:15;;;;;;;7.55;6.03;;;;;;;2.41;100.00;99959.88;5261253;28;20402;-86
2022/01/09 08:07:46;;;;;;;13.38;5.80;;;;;;;2.81;100.00;100015.34;5263121;28;20020;-84
2022/01/09 08:10:16;;;;;;;13.45;6.45;;;;;;;2.68;100.00;99998.47;5260139;28;20024;-85
2022/01/09 08:12:47;;;;;;;8.38;6.43;;;;;;;2.55;100.00;99966.66;5241859;28;20025;-86
2022/01/09 08:15:17;;;;;;;7.25;6.53;;;;;;;2.79;100.00;100012.06;5239718;28;20056;-84
2022/01/09 08:17:49;;;;;;;7.90;6.40;;;;;;;2.95;100.00;100027.44;5257132;28;20025;-83
2022/01/09 08:20:20;;;;;;;5.22;4.90;;;;;;;2.84;100.00;100007.69;5237846;28;20025;-81
2022/01/09 08:22:51;;;;;;;9.30;6.05;;;;;;;2.74;100.00;100010.09;5237570;28;20145;-81
2022/01/09 08:25:21;;;;;;;6.55;6.00;;;;;;;2.85;100.00;100013.84;5237636;28;20103;-81
2022/01/09 08:27:52;;;;;;;11.95;6.13;;;;;;;2.87;100.00;100027.78;5255416;28;20016;-82
2022/01/09 08:30:23;;;;;;;4.78;4.22;;;;;;;2.97;100.00;100047.50;5237187;28;20466;-81
2022/01/09 08:32:53;;;;;;;5.07;4.65;;;;;;;2.91;100.00;100035.06;5237600;28;20577;-81
2022/01/09 08:35:24;;;;;;;14.23;7.93;;;;;;;2.84;100.00;100030.88;5236378;28;20048;-82
2022/01/09 08:37:54;;;;;;;8.93;6.18;;;;;;;2.96;100.00;100047.72;5254441;28;20067;-82
2022/01/09 08:40:25;;;;;;;10.43;6.53;;;;;;;3.13;100.00;100075.41;5255178;28;20078;-81
2022/01/09 08:42:55;;;;;;;7.03;6.15;;;;;;;2.87;100.00;100022.44;5238441;28;20028;-81
2022/01/09 08:45:26;;;;;;;8.48;7.43;;;;;;;3.11;100.00;100077.47;5255500;28;20021;-84
2022/01/09 08:47:56;;;;;;;6.93;4.70;;;;;;;2.96;100.00;100037.06;5258522;28;20032;-85
2022/01/09 08:50:27;;;;;;;17.85;7.93;;;;;;;2.36;100.00;99967.72;5242365;28;20016;-84
2022/01/09 08:52:57;;;;;;;7.65;6.93;;;;;;;2.27;100.00;99953.09;5259014;28;20040;-85
2022/01/09 08:55:30;;;;;;;10.18;5.88;;;;;;;3.08;100.00;100077.13;5259522;28;20029;-85
2022/01/09 08:58:07;;;;;;;8.68;6.25;;;;;;;3.12;100.00;100081.78;5241725;28;20036;-85
2022/01/09 09:00:37;;;;;;;7.30;5.32;;;;;;;3.05;100.00;100070.38;5239278;28;20107;-84
2022/01/09 09:03:10;;;;;;;10.23;6.18;;;;;;;3.23;100.00;100074.84;5238632;28;20059;-85
2022/01/09 09:05:41;;;;;;;5.85;5.43;;;;;;;3.18;100.00;100067.50;5238589;28;20034;-85
2022/01/09 09:10:42;;;;;;;17.17;7.55;;;;;;;3.21;100.00;100060.91;5247063;22;20114;-63
2022/01/09 09:13:12;;;;;;;11.25;6.68;;;;;;;3.49;100.00;100108.34;5210026;28;20021;-62
2022/01/09 09:15:42;;;;;;;8.48;6.20;;;;;;;3.36;100.00;100091.50;5226288;28;20028;-63
2022/01/09 09:18:13;;;;;;;10.35;4.95;;;;;;;3.37;100.00;100103.78;5226690;28;20025;-62
2022/01/09 09:20:44;;;;;;;10.18;5.68;;;;;;;3.36;100.00;100112.03;5227090;28;20473;-62
2022/01/09 09:23:14;;;;;;;5.85;5.25;;;;;;;3.05;100.00;100079.19;5210352;28;20025;-63
2022/01/09 09:25:46;;;;;;;7.95;6.47;;;;;;;3.34;100.00;100114.91;5210513;28;20400;-64
2022/01/09 09:28:17;;;;;;;7.60;5.25;;;;;;;3.38;100.00;100121.44;5227270;28;20087;-62
2022/01/09 09:30:47;;;;;;;14.77;5.82;;;;;;;3.38;100.00;100123.28;5210438;28;20490;-62
2022/01/09 09:33:17;;;;;;;8.27;5.15;;;;;;;3.45;100.00;100134.69;5210133;28;20033;-62
2022/01/09 09:35:48;;;;;;;8.82;6.50;;;;;;;3.42;100.00;100140.47;5210581;28;20049;-62
2022/01/09 09:38:18;;;;;;;7.40;5.93;;;;;;;3.32;100.00;100138.34;5210490;28;20550;-63
2022/01/09 09:40:49;;;;;;;7.40;6.78;;;;;;;3.28;100.00;100126.50;5212017;28;20509;-63
2022/01/09 09:43:19;;;;;;;9.77;8.05;;;;;;;3.45;100.00;100149.88;5230704;28;20021;-61
2022/01/09 09:45:53;;;;;;;9.50;6.32;;;;;;;3.30;100.00;100120.94;5230796;28;20028;-63
2022/01/09 09:48:23;;;;;;;13.25;7.25;;;;;;;3.56;100.00;100154.44;5229968;28;20029;-63
2022/01/09 09:50:53;;;;;;;7.32;6.80;;;;;;;3.53;100.00;100141.53;5229790;28;20512;-63
2022/01/09 09:53:24;;;;;;;14.00;8.02;;;;;;;3.63;100.00;100155.16;5229728;28;20047;-63
2022/01/09 09:55:55;;;;;;;9.43;6.28;;;;;;;3.68;100.00;100158.78;5229674;28;20028;-63
2022/01/09 09:58:27;;;;;;;10.77;6.85;;;;;;;3.69;100.00;100138.25;5229255;28;20028;-63
2022/01/09 10:00:57;;;;;;;25.77;7.18;;;;;;;3.98;100.00;100164.06;5229722;28;20180;-62
2022/01/09 10:03:29;;;;;;;10.93;7.15;;;;;;;4.01;100.00;100163.63;5229426;28;20024;-63
2022/01/09 10:06:01;;;;;;;7.60;6.95;;;;;;;4.01;100.00;100166.28;5230147;28;20385;-63
2022/01/09 10:08:37;;;;;;;11.80;6.15;;;;;;;3.99;100.00;100157.69;5229802;28;20383;-62
2022/01/09 10:11:16;;;;;;;12.98;6.47;;;;;;;4.05;100.00;100161.28;5229730;28;20086;-63
2022/01/09 10:14:07;;;;;;;9.05;6.93;;;;;;;4.18;100.00;100178.97;5229406;28;20024;-63
2022/01/09 10:16:38;;;;;;;10.75;6.88;;;;;;;4.26;100.00;100154.59;5230186;28;20033;-63
2022/01/09 10:19:08;;;;;;;8.52;5.88;;;;;;;4.49;100.00;100172.47;5247338;28;20472;-63
2022/01/09 10:21:44;;;;;;;13.82;7.07;;;;;;;4.47;100.00;100172.72;5229236;28;20190;-63
2022/01/09 10:24:15;;;;;;;13.98;6.43;;;;;;;4.48;100.00;100162.81;5229024;28;20033;-63
2022/01/09 10:26:49;;;;;;;9.85;7.38;;;;;;;4.56;100.00;100174.00;5229176;28;20024;-63
2022/01/09 10:29:20;;;;;;;6.53;5.70;;;;;;;4.56;100.00;100154.47;5229498;28;20512;-64
2022/01/09 10:31:51;;;;;;;17.00;6.68;;;;;;;4.51;100.00;100178.41;5228911;28;20021;-63
2022/01/09 10:34:22;;;;;;;16.80;5.68;;;;;;;4.40;100.00;100177.34;5229027;28;20074;-64
2022/01/09 10:36:52;;;;;;;5.60;5.07;;;;;;;4.46;100.00;100176.44;5228998;28;20067;-63
2022/01/09 10:39:26;;;;;;;7.00;5.93;;;;;;;4.49;100.00;100178.63;5246493;28;20036;-63
2022/01/09 10:42:03;;;;;;;9.57;6.78;;;;;;;4.46;100.00;100181.78;5247466;28;20696;-64
2022/01/09 10:44:37;;;;;;;14.70;5.75;;;;;;;4.42;100.00;100185.94;5228851;28;20059;-62
2022/01/09 10:47:12;;;;;;;9.70;5.95;;;;;;;4.26;100.00;100189.31;5227523;28;20039;-64
2022/01/09 10:49:50;;;;;;;8.98;6.97;;;;;;;4.08;100.00;100183.00;5229802;28;20035;-64
2022/01/09 10:52:27;;;;;;;7.20;6.20;;;;;;;3.84;100.00;100169.84;5230019;28;20514;-63
2022/01/09 10:55:03;;;;;;;13.07;7.05;;;;;;;3.88;100.00;100179.84;5247656;28;20025;-64
2022/01/09 10:57:37;;;;;;;14.43;7.43;;;;;;;3.88;100.00;100185.19;5229758;28;20024;-63
2022/01/09 11:00:16;;;;;;;9.95;6.03;;;;;;;3.74;100.00;100157.06;5213692;28;20051;-64
2022/01/09 11:02:46;;;;;;;7.68;7.00;;;;;;;4.08;100.00;100187.53;5230402;28;20020;-63
2022/01/09 11:05:17;;;;;;;11.25;7.15;;;;;;;4.20;100.00;100195.59;5229974;28;20094;-64
2022/01/09 11:07:49;;;;;;;5.72;5.30;;;;;;;4.23;100.00;100205.81;5248353;28;20031;-64
2022/01/09 11:10:21;;;;;;;9.80;6.43;;;;;;;4.27;100.00;100201.66;5228677;28;20446;-64
2022/01/09 11:12:58;;;;;;;13.20;7.78;;;;;;;4.28;100.00;100205.94;5229593;28;20120;-64
2022/01/09 11:15:40;;;;;;;10.13;6.13;;;;;;;4.27;100.00;100194.44;5230023;28;20032;-64
2022/01/09 11:18:11;;;;;;;7.57;5.68;;;;;;;4.23;100.00;100171.91;5229615;28;20027;-64
2022/01/09 11:20:41;;;;;;;11.55;5.25;;;;;;;4.35;100.00;100198.59;5229306;28;20017;-63
2022/01/09 11:23:12;;;;;;;12.77;6.82;;;;;;;4.40;100.00;100207.56;5229577;28;20085;-65
2022/01/09 11:25:44;;;;;;;11.25;7.20;;;;;;;4.54;100.00;100208.16;5229225;28;20029;-64
2022/01/09 11:28:27;;;;;;;7.05;6.28;;;;;;;4.68;100.00;100206.88;5229402;28;20086;-64
2022/01/09 11:31:08;;;;;;;8.20;6.90;;;;;;;4.82;100.00;100204.78;5229401;28;20060;-64
2022/01/09 11:33:57;;;;;;;17.48;7.25;;;;;;;5.09;100.00;100203.22;5229294;28;20031;-64
2022/01/09 11:36:33;;;;;;;13.70;8.10;;;;;;;5.36;100.00;100208.88;5229198;28;20024;-65
2022/01/09 11:39:14;;;;;;;8.70;5.90;;;;;;;5.60;100.00;100208.78;5229081;28;20077;-64
2022/01/09 11:41:45;;;;;;;15.48;5.60;;;;;;;5.78;100.00;100195.97;5228621;28;20024;-64
2022/01/09 11:44:16;;;;;;;15.40;6.40;;;;;;;6.18;100.00;100196.97;5228743;28;20028;-64
2022/01/09 11:47:05;;;;;;;9.85;5.35;;;;;;;6.56;100.00;100207.78;5228848;28;20024;-64
2022/01/09 11:49:59;;;;;;;10.10;4.70;;;;;;;6.74;100.00;100222.78;5228486;28;20039;-64